Fort Hill, PA (15540)

11:25 PM EDT on June 23, 2017 (GMT -0400)
Highpoint | | Change Station
Active Advisory: Flash Flood Watch Active Notice: Flash Flood Watch

Elev 2293 ft 39.78 °N, 79.10 °W | Updated 21 seconds ago

Rain
Rain
66.2 °F
Feels Like 66.2 °F
N
0.0
Wind Variable Wind from South
Gusts 0.0 mph

Today
High -- | Low -- °F
--% Chance of Precip.
Yesterday
High -- | Low -- °F
Precip. -- in
Pressure 29.75 in
Visibility 7.0 miles
Clouds Scattered Clouds 1200 ft
Scattered Clouds 1700 ft
Mostly Cloudy 4400 ft
Dew Point 66 °F
Humidity 99%
Rainfall 2.50 in
Snow Depth Not available.
5:49 AM 8:48 PM
New Moon, 0% visible
METAR KCBE 240313Z AUTO 03005KT 7SM SCT012 SCT017 BKN044 22/22 A2975 RMK AO1
Pressure 29.75 in
Visibility 7.0 miles
Clouds Scattered Clouds 1200 ft
Scattered Clouds 1700 ft
Mostly Cloudy 4400 ft
Dew Point 66 °F
Humidity 99%
Rainfall 2.50 in
Snow Depth Not available.
5:49 AM 8:48 PM
New Moon, 0% visible
METAR KCBE 240313Z AUTO 03005KT 7SM SCT012 SCT017 BKN044 22/22 A2975 RMK AO1

Get Your Daily Forecast Email!

Thanks for signing up!

Be on the lookout for a verification email in your inbox.

You'll start receiving severe weather alerts in your inbox..

×

10-Day Weather Forecast

Almanac

Astronomy

Jun. 23, 2017 Rise Set
Actual Time
Civil Twilight
Nautical Twilight
Astronomical Twilight
Moon
Length of Visible Light
Length of Day
Tomorrow will be .
, % of the Moon is Illuminated

Today's Extremes

State Highs State Lows

Community

WunderPhotos

Category 6

Welcome to Category 6. This is the collective home for Weather Underground's featured writeups by Dr. Jeff Masters (right), Bob Henson (left), Chris Burt, and other regular contributors.

Nearby

Air Quality

  Air Quality AQ Index Pollutant
Not available.

Snow Depth

Station Depth Elevation

Earthquake Activity

City Distance Mag. Time & Date
Minimum magnitude displayed is 2.5.

Coastal Water Temperatures

Place Temperature

Stations

Nearby Weather Stations

Station Location Temp. Windchill Dew Point Humidity Wind Precip. Elev Updated Type
                   

Watches & Warnings

Flash Flood Watch
Issued: 2:16 PM EDT Jun. 23, 2017 – National Weather Service

... Flash Flood Watch in effect from 6 PM EDT this evening through
late tonight...

The National Weather Service in State College has issued a

* Flash Flood Watch for a portion of central Pennsylvania,
including the following areas, Bedford, Blair, Cambria, and
Somerset.

* From 6 PM EDT this evening through late tonight

* an approaching front and the remnants of Tropical Storm Cindy
will bring a plume of deep tropical moisture and the potential
for torrential flooding downpours to the region this evening
into the overnight.

* Expect the possibility of streams and creeks to overflow their
banks. Also expect Road closures and flooding of normal low
lying poor drainage areas.

Precautionary/preparedness actions...

Review flood safety and preparedness information at
weather.Gov/flood.



La corte